Time;durP1;ratioP1;P1;durP2;ratioP2;P2;SDS_P1;SDS_P2;PMS_P1;PMS_P2;Temp;Humidity;BMP_temperature;BMP_pressure;BME280_temperature;BME280_humidity;BME280_pressure;Samples;Min_cycle;Max_cycle;Signal;HPM_P1;HPM_P2
2023/09/16 00:01:43;;;;;;;2.03;1.87;;;;;15.90;95932.00;;;;5056385;28;20192;-58
2023/09/16 00:04:11;;;;;;;1.80;1.70;;;;;15.80;95936.00;;;;5056850;28;20706;-58
2023/09/16 00:06:38;;;;;;;2.60;2.40;;;;;15.70;95931.00;;;;5056476;28;20211;-59
2023/09/16 00:09:06;;;;;;;2.67;2.47;;;;;15.70;95936.00;;;;5038554;28;20192;-57
2023/09/16 00:11:35;;;;;;;1.80;1.70;;;;;15.70;95940.00;;;;5056445;28;20192;-57
2023/09/16 00:14:02;;;;;;;1.90;1.80;;;;;15.70;95931.00;;;;5056315;28;20273;-57
2023/09/16 00:16:30;;;;;;;1.87;1.60;;;;;15.60;95939.00;;;;5056503;28;20191;-57
2023/09/16 00:18:57;;;;;;;1.90;1.80;;;;;15.60;95931.00;;;;5056470;28;20572;-57
2023/09/16 00:21:25;;;;;;;4.93;1.83;;;;;15.70;95929.00;;;;5056212;28;20622;-58
2023/09/16 00:23:53;;;;;;;1.93;1.83;;;;;15.60;95928.00;;;;5056121;28;20216;-58
2023/09/16 00:26:21;;;;;;;1.77;1.67;;;;;15.60;95926.00;;;;5056116;28;20265;-57
2023/09/16 00:28:49;;;;;;;2.23;2.13;;;;;15.70;95923.00;;;;5056052;28;20196;-57
2023/09/16 00:31:17;;;;;;;1.87;1.77;;;;;15.70;95923.00;;;;5056074;28;20233;-57
2023/09/16 00:33:46;;;;;;;1.80;1.70;;;;;15.60;95918.00;;;;5056497;28;20238;-58
2023/09/16 00:36:14;;;;;;;2.43;2.27;;;;;15.70;95923.00;;;;5056318;28;20219;-58
2023/09/16 00:38:41;;;;;;;2.27;2.17;;;;;15.60;95915.00;;;;5056104;28;20192;-57
2023/09/16 00:41:09;;;;;;;1.63;1.57;;;;;15.50;95916.00;;;;5056459;28;20192;-57
2023/09/16 00:43:36;;;;;;;1.63;1.53;;;;;15.40;95916.00;;;;5055724;28;20753;-57
2023/09/16 00:46:05;;;;;;;3.10;2.10;;;;;15.30;95914.00;;;;5056158;28;20220;-57
2023/09/16 00:48:33;;;;;;;1.67;1.57;;;;;15.20;95914.00;;;;5055680;28;20207;-57
2023/09/16 00:51:00;;;;;;;1.20;1.20;;;;;15.10;95918.00;;;;5055657;28;20196;-57
2023/09/16 00:53:29;;;;;;;2.50;2.30;;;;;15.20;95924.00;;;;5055538;28;20192;-58
2023/09/16 00:55:56;;;;;;;2.33;2.00;;;;;15.20;95925.00;;;;5055519;28;20184;-57
2023/09/16 00:58:24;;;;;;;1.80;1.70;;;;;15.10;95915.00;;;;5055597;28;20195;-58
2023/09/16 01:00:52;;;;;;;1.53;1.43;;;;;15.20;95916.00;;;;5054552;28;20600;-59
2023/09/16 01:03:22;;;;;;;2.30;2.20;;;;;15.20;95916.00;;;;5055298;28;20686;-58
2023/09/16 01:05:50;;;;;;;1.30;1.30;;;;;15.10;95918.00;;;;5037412;28;20226;-57
2023/09/16 01:08:18;;;;;;;1.90;1.80;;;;;15.10;95911.00;;;;5055273;28;20563;-57
2023/09/16 01:10:46;;;;;;;1.80;1.70;;;;;15.10;95915.00;;;;5055453;28;20291;-57
2023/09/16 01:13:16;;;;;;;1.60;1.50;;;;;15.10;95910.00;;;;5055638;28;20188;-57
2023/09/16 01:15:49;;;;;;;1.50;1.43;;;;;15.00;95906.00;;;;5055350;28;20187;-58
2023/09/16 01:18:25;;;;;;;1.40;1.40;;;;;15.00;95912.00;;;;5055219;28;20173;-57
2023/09/16 01:20:55;;;;;;;1.27;1.27;;;;;14.90;95903.00;;;;5055500;28;20208;-57
2023/09/16 01:23:23;;;;;;;1.47;1.47;;;;;14.80;95906.00;;;;5054959;28;20192;-58
2023/09/16 01:25:51;;;;;;;1.37;1.27;;;;;14.80;95911.00;;;;5055546;28;20750;-58
2023/09/16 01:28:19;;;;;;;2.00;1.90;;;;;14.60;95913.00;;;;5054975;28;20199;-57
2023/09/16 01:30:50;;;;;;;1.53;1.50;;;;;14.60;95907.00;;;;5055211;28;20192;-57
2023/09/16 01:33:23;;;;;;;2.07;1.97;;;;;14.60;95915.00;;;;5054730;28;20184;-57
2023/09/16 01:35:55;;;;;;;1.63;1.53;;;;;14.70;95918.00;;;;5055071;28;20581;-57
2023/09/16 01:38:24;;;;;;;2.47;2.37;;;;;14.80;95905.00;;;;5055181;28;20181;-58
2023/09/16 01:40:55;;;;;;;1.67;1.57;;;;;14.70;95910.00;;;;5055081;28;20199;-57
2023/09/16 01:43:23;;;;;;;4.17;1.87;;;;;14.80;95912.00;;;;5054613;28;20541;-57
2023/09/16 01:45:51;;;;;;;2.17;2.03;;;;;14.60;95906.00;;;;5054567;28;20203;-57
2023/09/16 01:48:18;;;;;;;2.20;2.10;;;;;14.70;95908.00;;;;5055087;28;20199;-57
2023/09/16 01:50:46;;;;;;;1.17;1.17;;;;;14.70;95916.00;;;;5054494;28;20196;-57
2023/09/16 01:53:13;;;;;;;1.80;1.70;;;;;14.60;95919.00;;;;5054436;28;20195;-57
2023/09/16 01:55:40;;;;;;;1.63;1.53;;;;;14.40;95920.00;;;;5054844;28;20196;-57
2023/09/16 01:58:09;;;;;;;1.37;1.37;;;;;14.50;95923.00;;;;5054775;28;20547;-57
2023/09/16 02:00:37;;;;;;;2.03;1.93;;;;;14.50;95924.00;;;;5054287;28;20188;-57
2023/09/16 02:03:05;;;;;;;1.57;1.47;;;;;14.50;95915.00;;;;5054351;28;20204;-57
2023/09/16 02:05:32;;;;;;;2.30;1.93;;;;;14.50;95922.00;;;;5054185;28;20703;-58
2023/09/16 02:08:00;;;;;;;1.77;1.67;;;;;14.60;95928.00;;;;5054158;28;20216;-57
2023/09/16 02:10:28;;;;;;;1.80;1.70;;;;;14.60;95925.00;;;;5054070;28;20200;-57
2023/09/16 02:12:55;;;;;;;1.13;1.13;;;;;14.60;95928.00;;;;5054278;28;20188;-57
2023/09/16 02:15:31;;;;;;;1.70;1.60;;;;;14.60;95930.00;;;;5054365;28;20338;-57
2023/09/16 02:17:58;;;;;;;1.70;1.60;;;;;14.70;95931.00;;;;5054257;28;20168;-57
2023/09/16 02:20:26;;;;;;;5.13;2.90;;;;;14.70;95923.00;;;;5054062;28;20196;-58
2023/09/16 02:22:53;;;;;;;2.40;2.13;;;;;14.70;95924.00;;;;5054232;28;20690;-57
2023/09/16 02:25:21;;;;;;;3.13;2.37;;;;;14.60;95930.00;;;;5053932;28;20208;-57
2023/09/16 02:27:49;;;;;;;1.37;1.37;;;;;14.60;95934.00;;;;5053787;28;20218;-58
2023/09/16 02:30:16;;;;;;;2.40;1.67;;;;;14.60;95933.00;;;;5054364;28;20192;-57
2023/09/16 02:32:45;;;;;;;2.03;1.93;;;;;14.50;95937.00;;;;5054379;28;20195;-56
2023/09/16 02:35:12;;;;;;;1.40;1.33;;;;;14.60;95933.00;;;;5054159;28;20574;-56
2023/09/16 02:37:41;;;;;;;1.00;1.00;;;;;14.60;95927.00;;;;5054354;28;20192;-56
2023/09/16 02:40:09;;;;;;;2.30;2.20;;;;;14.70;95927.00;;;;5036145;28;20568;-57
2023/09/16 02:42:37;;;;;;;2.10;2.00;;;;;14.60;95931.00;;;;5053964;28;20195;-57
2023/09/16 02:45:05;;;;;;;2.07;1.97;;;;;14.50;95934.00;;;;5053745;28;20208;-58
2023/09/16 02:47:33;;;;;;;2.73;2.53;;;;;14.50;95929.00;;;;5053533;28;20224;-57
2023/09/16 02:50:02;;;;;;;2.67;2.47;;;;;14.60;95930.00;;;;5053346;28;20656;-57
2023/09/16 02:52:29;;;;;;;2.30;2.20;;;;;14.50;95928.00;;;;5053461;28;20200;-58
2023/09/16 02:54:57;;;;;;;1.60;1.50;;;;;14.50;95926.00;;;;5053336;28;20220;-57
2023/09/16 02:57:24;;;;;;;1.67;1.47;;;;;14.30;95932.00;;;;5053358;28;20195;-58
2023/09/16 02:59:53;;;;;;;2.00;1.90;;;;;14.20;95929.00;;;;5053521;28;20193;-57
2023/09/16 03:02:20;;;;;;;1.70;1.60;;;;;14.00;95936.00;;;;5053183;28;20284;-57
2023/09/16 03:04:47;;;;;;;1.70;1.60;;;;;14.00;95933.00;;;;5053287;28;20607;-58
2023/09/16 03:07:16;;;;;;;1.33;1.27;;;;;13.90;95927.00;;;;5053180;28;20220;-58
2023/09/16 03:09:44;;;;;;;1.70;1.60;;;;;14.00;95928.00;;;;5035237;28;20651;-57
2023/09/16 03:12:11;;;;;;;1.53;1.00;;;;;14.00;95927.00;;;;5053110;28;20196;-56
2023/09/16 03:14:38;;;;;;;1.40;1.40;;;;;14.00;95928.00;;;;5053606;28;20216;-57
2023/09/16 03:17:06;;;;;;;2.20;2.03;;;;;14.00;95917.00;;;;5053008;28;20528;-58
2023/09/16 03:19:33;;;;;;;1.60;1.57;;;;;14.10;95917.00;;;;5053365;28;20202;-57
2023/09/16 03:22:01;;;;;;;1.47;1.47;;;;;14.20;95914.00;;;;5052642;28;20192;-59
2023/09/16 03:24:29;;;;;;;1.20;1.20;;;;;14.10;95914.00;;;;5052931;28;20269;-58
2023/09/16 03:26:57;;;;;;;1.80;1.70;;;;;14.00;95907.00;;;;5052937;28;20709;-57
2023/09/16 03:29:24;;;;;;;2.10;1.90;;;;;13.90;95914.00;;;;5052820;28;20608;-58
2023/09/16 03:31:52;;;;;;;1.50;1.40;;;;;13.90;95904.00;;;;5053000;28;20192;-56
2023/09/16 03:34:19;;;;;;;1.87;1.77;;;;;13.90;95898.00;;;;5052767;28;20207;-57
2023/09/16 03:36:47;;;;;;;1.00;1.00;;;;;13.80;95894.00;;;;5052946;28;20184;-58
2023/09/16 03:39:15;;;;;;;1.73;1.63;;;;;13.70;95896.00;;;;5052985;28;20191;-57
2023/09/16 03:41:43;;;;;;;2.73;2.53;;;;;13.70;95894.00;;;;5052876;28;20555;-56
2023/09/16 03:44:12;;;;;;;0.70;0.70;;;;;13.80;95891.00;;;;5052612;28;20215;-57
2023/09/16 03:46:42;;;;;;;4.33;1.60;;;;;13.80;95888.00;;;;5052663;28;20238;-57
2023/09/16 03:49:10;;;;;;;2.20;2.07;;;;;13.80;95893.00;;;;5052870;28;20196;-57
2023/09/16 03:51:38;;;;;;;1.87;1.77;;;;;13.90;95889.00;;;;5052750;28;20192;-57
2023/09/16 03:54:06;;;;;;;2.17;2.03;;;;;13.80;95889.00;;;;5052872;28;20216;-57
2023/09/16 03:56:34;;;;;;;1.80;1.70;;;;;14.00;95892.00;;;;5052818;28;20196;-57
2023/09/16 03:59:03;;;;;;;1.83;1.73;;;;;14.00;95891.00;;;;5053466;28;20265;-58
2023/09/16 04:01:31;;;;;;;2.20;2.10;;;;;13.90;95885.00;;;;5053310;28;20216;-57
2023/09/16 04:03:58;;;;;;;1.80;1.70;;;;;13.90;95885.00;;;;5052706;28;20306;-57
2023/09/16 04:06:26;;;;;;;2.13;1.93;;;;;13.80;95879.00;;;;5053411;28;20196;-57
2023/09/16 04:08:54;;;;;;;2.93;2.67;;;;;13.70;95874.00;;;;5052585;28;20238;-58
2023/09/16 04:11:22;;;;;;;1.93;1.83;;;;;13.70;95872.00;;;;5052734;28;20607;-56
2023/09/16 04:13:49;;;;;;;2.00;1.90;;;;;13.50;95876.00;;;;5052370;28;20212;-57
2023/09/16 04:16:18;;;;;;;2.47;2.27;;;;;13.60;95871.00;;;;5052488;28;20203;-57
2023/09/16 04:18:46;;;;;;;1.37;1.37;;;;;13.60;95872.00;;;;5052690;28;20216;-57
2023/09/16 04:21:13;;;;;;;4.53;1.80;;;;;13.60;95858.00;;;;5052405;28;20196;-57
2023/09/16 04:23:40;;;;;;;1.93;1.83;;;;;13.70;95852.00;;;;5052398;28;20204;-58
2023/09/16 04:26:12;;;;;;;1.70;1.37;;;;;13.60;95856.00;;;;5052805;28;20538;-57
2023/09/16 04:28:39;;;;;;;1.63;1.57;;;;;13.60;95855.00;;;;5052769;28;20211;-57
2023/09/16 04:31:08;;;;;;;2.30;1.57;;;;;13.80;95827.00;;;;5052749;28;20190;-57
2023/09/16 04:33:38;;;;;;;2.53;2.33;;;;;13.90;95857.00;;;;5053389;28;20255;-58
2023/09/16 04:36:06;;;;;;;1.60;1.50;;;;;13.90;95860.00;;;;5056253;28;20192;-57
2023/09/16 04:38:34;;;;;;;2.10;1.93;;;;;13.90;95859.00;;;;5056453;28;20196;-56
2023/09/16 04:41:01;;;;;;;2.83;1.40;;;;;14.00;95862.00;;;;5055871;28;20203;-58
2023/09/16 04:43:28;;;;;;;1.13;1.13;;;;;14.00;95856.00;;;;5055867;28;20197;-58
2023/09/16 04:45:56;;;;;;;1.33;1.33;;;;;14.00;95858.00;;;;5056181;28;20607;-58
2023/09/16 04:48:23;;;;;;;1.83;1.73;;;;;14.00;95860.00;;;;5055780;28;20227;-57
2023/09/16 04:50:52;;;;;;;1.63;1.53;;;;;14.00;95860.00;;;;5055726;28;20203;-58
2023/09/16 04:53:19;;;;;;;1.93;1.83;;;;;13.90;95861.00;;;;5055523;28;20188;-59
2023/09/16 04:55:47;;;;;;;1.53;1.43;;;;;14.00;95856.00;;;;5055887;28;20262;-58
2023/09/16 04:58:14;;;;;;;2.53;1.83;;;;;14.10;95849.00;;;;5055808;28;20200;-57
2023/09/16 05:00:42;;;;;;;0.97;0.97;;;;;14.20;95850.00;;;;5055448;28;20199;-58
2023/09/16 05:03:09;;;;;;;1.63;1.53;;;;;14.20;95852.00;;;;5037460;28;20200;-57
2023/09/16 05:05:37;;;;;;;1.57;1.47;;;;;14.30;95851.00;;;;5055341;28;20278;-58
2023/09/16 05:08:06;;;;;;;1.30;1.27;;;;;14.20;95853.00;;;;5055689;28;20258;-58
2023/09/16 05:10:33;;;;;;;1.60;1.50;;;;;14.00;95853.00;;;;5055248;28;20196;-57
2023/09/16 05:13:01;;;;;;;1.23;1.23;;;;;14.00;95863.00;;;;5055141;28;20192;-60
2023/09/16 05:15:28;;;;;;;1.37;1.37;;;;;13.90;95856.00;;;;5055270;28;20212;-58
2023/09/16 05:17:56;;;;;;;1.77;1.67;;;;;13.90;95852.00;;;;5055166;28;20211;-58
2023/09/16 05:20:23;;;;;;;1.50;1.43;;;;;13.90;95852.00;;;;5055360;28;20199;-58
2023/09/16 05:22:52;;;;;;;2.13;1.53;;;;;13.90;95852.00;;;;5055477;28;20246;-58
2023/09/16 05:25:20;;;;;;;1.10;1.10;;;;;14.00;95855.00;;;;5037086;28;20587;-58
2023/09/16 05:27:48;;;;;;;0.93;0.93;;;;;14.10;95861.00;;;;5054862;28;20222;-58
2023/09/16 05:30:16;;;;;;;2.23;1.17;;;;;14.00;95856.00;;;;5055087;28;20214;-58
2023/09/16 05:32:43;;;;;;;1.63;1.53;;;;;14.00;95854.00;;;;5055554;28;20275;-57
2023/09/16 05:35:11;;;;;;;1.70;1.60;;;;;14.10;95851.00;;;;5054772;28;20208;-57
2023/09/16 05:37:38;;;;;;;1.70;1.60;;;;;14.00;95851.00;;;;5054821;28;20200;-57
2023/09/16 05:40:07;;;;;;;1.87;1.77;;;;;14.00;95853.00;;;;5054882;28;20562;-57
2023/09/16 05:42:35;;;;;;;1.33;1.30;;;;;13.90;95852.00;;;;5054672;28;20667;-58
2023/09/16 05:45:04;;;;;;;2.13;2.03;;;;;13.90;95849.00;;;;5054191;28;20208;-56
2023/09/16 05:47:32;;;;;;;1.57;1.47;;;;;13.90;95850.00;;;;5055441;28;20243;-57
2023/09/16 05:50:00;;;;;;;1.50;1.40;;;;;13.90;95850.00;;;;5054739;28;20188;-57
2023/09/16 05:52:27;;;;;;;1.40;1.37;;;;;13.90;95850.00;;;;5054872;28;20196;-57
2023/09/16 05:54:58;;;;;;;1.00;1.00;;;;;13.90;95858.00;;;;5054636;28;20212;-57
2023/09/16 05:57:25;;;;;;;1.87;1.77;;;;;14.00;95853.00;;;;5054350;28;20184;-57
2023/09/16 05:59:54;;;;;;;3.47;3.17;;;;;14.00;95854.00;;;;5054231;28;20229;-57
2023/09/16 06:02:21;;;;;;;1.63;1.53;;;;;14.00;95852.00;;;;5054291;28;20219;-58
2023/09/16 06:04:49;;;;;;;2.13;2.03;;;;;14.10;95849.00;;;;5054236;28;20219;-58
2023/09/16 06:07:17;;;;;;;3.27;2.93;;;;;14.20;95848.00;;;;5054175;28;20232;-57
2023/09/16 06:09:44;;;;;;;1.80;1.70;;;;;14.20;95851.00;;;;5055042;28;20195;-57
2023/09/16 06:12:12;;;;;;;2.17;2.00;;;;;14.30;95859.00;;;;5053917;28;20201;-57
2023/09/16 06:14:39;;;;;;;1.63;1.53;;;;;14.40;95853.00;;;;5053909;28;20223;-57
2023/09/16 06:17:08;;;;;;;2.20;2.10;;;;;14.50;95858.00;;;;5053780;28;20188;-57
2023/09/16 06:19:36;;;;;;;1.43;1.40;;;;;14.50;95848.00;;;;5053965;28;20543;-57
2023/09/16 06:22:03;;;;;;;1.70;1.60;;;;;14.60;95841.00;;;;5054269;28;20223;-57
2023/09/16 06:24:31;;;;;;;2.37;2.17;;;;;14.60;95854.00;;;;5035805;28;20227;-57
2023/09/16 06:26:58;;;;;;;1.63;1.57;;;;;14.70;95855.00;;;;5053600;28;20194;-57
2023/09/16 06:29:26;;;;;;;2.23;1.63;;;;;14.60;95866.00;;;;5053682;28;20549;-57
2023/09/16 06:31:53;;;;;;;2.87;2.43;;;;;14.60;95868.00;;;;5054005;28;20192;-57
2023/09/16 06:34:22;;;;;;;1.87;1.77;;;;;14.70;95869.00;;;;5053374;28;20299;-57
2023/09/16 06:36:49;;;;;;;2.33;2.23;;;;;14.80;95873.00;;;;5053456;28;20702;-57
2023/09/16 06:39:17;;;;;;;1.20;1.20;;;;;14.90;95857.00;;;;5053453;28;20188;-57
2023/09/16 06:41:44;;;;;;;1.83;1.73;;;;;14.90;95861.00;;;;5053748;28;20666;-57
2023/09/16 06:44:12;;;;;;;1.17;1.17;;;;;15.00;95864.00;;;;5053447;28;20625;-57
2023/09/16 06:46:40;;;;;;;1.90;1.80;;;;;15.10;95859.00;;;;5053295;28;20192;-57
2023/09/16 06:49:08;;;;;;;1.53;1.43;;;;;15.10;95858.00;;;;5053307;28;20303;-57
2023/09/16 06:51:36;;;;;;;2.23;2.13;;;;;15.20;95856.00;;;;5053143;28;20196;-57
2023/09/16 06:54:04;;;;;;;1.57;1.47;;;;;15.20;95856.00;;;;5052978;28;20223;-57
2023/09/16 06:56:31;;;;;;;2.37;1.67;;;;;15.30;95856.00;;;;5052716;28;20214;-57
2023/09/16 06:59:01;;;;;;;1.60;1.50;;;;;15.30;95856.00;;;;5052515;28;20199;-57
2023/09/16 07:01:28;;;;;;;1.83;1.73;;;;;15.20;95856.00;;;;5053741;28;20247;-57
2023/09/16 07:03:58;;;;;;;1.57;1.47;;;;;15.20;95848.00;;;;5052859;28;20208;-57
2023/09/16 07:06:26;;;;;;;1.53;1.50;;;;;15.30;95846.00;;;;5053069;28;20185;-57
2023/09/16 07:08:55;;;;;;;2.40;1.67;;;;;15.00;95854.00;;;;5053107;28;20223;-57
2023/09/16 07:11:22;;;;;;;3.03;2.30;;;;;15.30;95847.00;;;;5053131;28;20210;-58
2023/09/16 07:13:50;;;;;;;2.03;1.83;;;;;15.30;95846.00;;;;5053086;28;20211;-58
2023/09/16 07:16:20;;;;;;;2.13;2.00;;;;;15.20;95856.00;;;;5052780;28;20215;-58
2023/09/16 07:18:49;;;;;;;1.90;1.73;;;;;15.20;95845.00;;;;5052912;28;20230;-58
2023/09/16 07:21:16;;;;;;;2.17;1.97;;;;;15.30;95852.00;;;;5053136;28;20200;-58
2023/09/16 07:23:44;;;;;;;2.20;2.10;;;;;15.50;95851.00;;;;5052910;28;20614;-58
2023/09/16 07:26:15;;;;;;;1.70;1.60;;;;;15.50;95859.00;;;;5034791;28;20196;-58
2023/09/16 07:28:42;;;;;;;0.87;0.87;;;;;15.60;95848.00;;;;5035402;28;20690;-58
2023/09/16 07:31:10;;;;;;;1.30;1.30;;;;;15.70;95856.00;;;;5034767;28;20192;-57
2023/09/16 07:33:37;;;;;;;1.83;1.73;;;;;15.80;95859.00;;;;5052770;28;20227;-57
2023/09/16 07:36:05;;;;;;;3.17;2.00;;;;;15.90;95850.00;;;;5052714;28;20573;-58
2023/09/16 07:38:32;;;;;;;12.23;2.83;;;;;16.20;95856.00;;;;5053070;28;20195;-58
2023/09/16 07:41:00;;;;;;;1.73;1.63;;;;;16.30;95852.00;;;;5052785;28;20202;-57
2023/09/16 07:43:29;;;;;;;1.70;1.60;;;;;16.20;95874.00;;;;5052443;28;20198;-57
2023/09/16 07:45:58;;;;;;;1.00;1.00;;;;;16.20;95873.00;;;;5052661;28;20192;-58
2023/09/16 07:48:26;;;;;;;1.40;1.40;;;;;16.40;95868.00;;;;5052663;28;20262;-57
2023/09/16 07:50:54;;;;;;;1.77;1.67;;;;;16.60;95878.00;;;;5053120;28;20200;-56
2023/09/16 07:53:21;;;;;;;2.47;2.27;;;;;16.80;95882.00;;;;5052850;28;20191;-57
2023/09/16 07:55:49;;;;;;;1.40;1.40;;;;;16.90;95884.00;;;;5052537;28;20250;-57
2023/09/16 07:58:16;;;;;;;3.07;2.60;;;;;17.20;95879.00;;;;5052303;28;20199;-57
2023/09/16 08:00:45;;;;;;;1.63;1.53;;;;;17.10;95876.00;;;;5052601;28;20199;-58
2023/09/16 08:03:12;;;;;;;2.80;2.23;;;;;17.30;95883.00;;;;5052152;28;20211;-58
2023/09/16 08:05:40;;;;;;;1.97;1.87;;;;;17.30;95884.00;;;;5052451;28;20553;-58
2023/09/16 08:08:07;;;;;;;1.50;1.50;;;;;17.60;95879.00;;;;5052691;28;20216;-58
2023/09/16 08:10:34;;;;;;;2.23;2.13;;;;;17.80;95888.00;;;;5056309;28;20200;-58
2023/09/16 08:13:02;;;;;;;2.23;2.10;;;;;18.10;95892.00;;;;5056288;28;20196;-58
2023/09/16 08:15:29;;;;;;;1.87;1.77;;;;;18.20;95899.00;;;;5056111;28;20212;-58
2023/09/16 08:17:58;;;;;;;1.83;1.73;;;;;18.50;95898.00;;;;5056075;28;20601;-58
2023/09/16 08:20:25;;;;;;;3.80;1.83;;;;;18.70;95895.00;;;;5056636;28;20558;-58
2023/09/16 08:22:52;;;;;;;1.73;1.43;;;;;18.80;95899.00;;;;5056004;28;20197;-58
2023/09/16 08:25:20;;;;;;;1.53;1.47;;;;;18.90;95895.00;;;;5055928;28;20699;-55
2023/09/16 08:27:51;;;;;;;2.73;1.60;;;;;19.10;95889.00;;;;5056358;28;20192;-55
2023/09/16 08:30:21;;;;;;;2.47;2.27;;;;;19.40;95882.00;;;;5055939;28;20184;-55
2023/09/16 08:32:48;;;;;;;1.40;1.40;;;;;19.60;95888.00;;;;5055740;28;20285;-55
2023/09/16 08:35:17;;;;;;;2.00;1.90;;;;;19.80;95890.00;;;;5055837;28;20231;-55
2023/09/16 08:37:44;;;;;;;1.90;1.80;;;;;20.00;95888.00;;;;5055608;28;20272;-56
2023/09/16 08:40:12;;;;;;;1.60;1.50;;;;;20.20;95886.00;;;;5055633;28;20188;-56
2023/09/16 08:42:42;;;;;;;0.93;0.93;;;;;20.30;95885.00;;;;5055564;28;20215;-56
2023/09/16 08:45:15;;;;;;;1.63;1.53;;;;;20.40;95887.00;;;;5055756;28;20222;-57
2023/09/16 08:47:49;;;;;;;2.53;2.43;;;;;20.50;95887.00;;;;5055615;28;20222;-57
2023/09/16 08:50:21;;;;;;;3.70;1.70;;;;;20.60;95878.00;;;;5055453;28;20211;-57
2023/09/16 08:52:51;;;;;;;2.10;2.00;;;;;20.70;95883.00;;;;5055600;28;20177;-57
2023/09/16 08:55:20;;;;;;;1.60;1.50;;;;;20.90;95891.00;;;;5055186;28;20207;-57
2023/09/16 08:57:52;;;;;;;1.75;1.65;;;;;20.90;95889.00;;;;5055369;28;20234;-57
2023/09/16 09:00:20;;;;;;;1.90;1.43;;;;;21.20;95907.00;;;;5055757;28;20302;-57
2023/09/16 09:02:49;;;;;;;2.00;1.83;;;;;21.20;95904.00;;;;5055154;28;20558;-57
2023/09/16 09:05:23;;;;;;;2.20;2.08;;;;;21.30;95902.00;;;;5055104;28;20218;-57
2023/09/16 09:07:50;;;;;;;2.00;1.80;;;;;21.30;95899.00;;;;5055228;28;20175;-57
2023/09/16 09:10:18;;;;;;;1.98;1.88;;;;;21.20;95894.00;;;;5055126;28;20227;-57
2023/09/16 09:12:46;;;;;;;1.30;1.30;;;;;21.40;95893.00;;;;5037072;28;20578;-56
2023/09/16 09:15:15;;;;;;;2.45;2.25;;;;;21.40;95899.00;;;;5055004;28;20232;-57
2023/09/16 09:17:45;;;;;;;1.90;1.80;;;;;21.40;95890.00;;;;5054781;28;20207;-57
2023/09/16 09:20:18;;;;;;;1.98;1.88;;;;;21.70;95890.00;;;;5053939;28;20191;-57
2023/09/16 09:22:49;;;;;;;2.35;2.15;;;;;21.80;95889.00;;;;5054939;28;20513;-57
2023/09/16 09:25:19;;;;;;;2.80;2.40;;;;;21.80;95894.00;;;;5054683;28;20208;-58
2023/09/16 09:27:47;;;;;;;1.40;1.30;;;;;22.10;95891.00;;;;5054798;28;20632;-57
2023/09/16 09:30:14;;;;;;;0.70;0.70;;;;;22.10;95889.00;;;;5054705;28;20679;-57
2023/09/16 09:32:45;;;;;;;1.00;1.00;;;;;22.40;95892.00;;;;5055032;28;20192;-57
2023/09/16 09:35:13;;;;;;;2.42;2.03;;;;;22.80;95890.00;;;;5036667;28;20219;-57
2023/09/16 09:37:41;;;;;;;1.13;1.13;;;;;22.60;95895.00;;;;5054598;28;20203;-57
2023/09/16 09:40:11;;;;;;;1.17;1.17;;;;;23.00;95896.00;;;;5054463;28;20189;-57
2023/09/16 09:42:42;;;;;;;1.00;0.77;;;;;23.00;95901.00;;;;5054942;28;20188;-58
2023/09/16 09:45:10;;;;;;;1.80;1.67;;;;;23.00;95899.00;;;;5054282;28;20718;-57
2023/09/16 09:47:38;;;;;;;1.10;1.08;;;;;22.90;95898.00;;;;5054374;28;20192;-58
2023/09/16 09:50:08;;;;;;;1.48;1.38;;;;;23.00;95897.00;;;;5054222;28;20219;-58
2023/09/16 09:52:36;;;;;;;0.88;0.88;;;;;23.30;95892.00;;;;5036230;28;20195;-58
2023/09/16 09:55:05;;;;;;;1.00;1.00;;;;;23.40;95892.00;;;;5054167;28;20208;-58
2023/09/16 09:57:33;;;;;;;1.60;1.50;;;;;23.40;95892.00;;;;5054454;28;20195;-58
2023/09/16 10:00:01;;;;;;;1.23;1.20;;;;;23.80;95891.00;;;;5054141;28;20192;-58
2023/09/16 10:02:29;;;;;;;1.48;1.38;;;;;24.10;95886.00;;;;5054262;28;20678;-57
2023/09/16 10:05:01;;;;;;;1.00;1.00;;;;;24.30;95883.00;;;;5054002;28;20223;-57
2023/09/16 10:07:29;;;;;;;1.45;1.35;;;;;24.70;95888.00;;;;5054494;28;20188;-58
2023/09/16 10:09:57;;;;;;;1.17;1.17;;;;;25.00;95874.00;;;;5054150;28;20220;-58
2023/09/16 10:12:26;;;;;;;1.33;1.30;;;;;25.40;95877.00;;;;5054243;28;20207;-57
2023/09/16 10:14:54;;;;;;;0.95;0.95;;;;;25.70;95881.00;;;;5054106;28;20222;-57
2023/09/16 10:17:23;;;;;;;1.40;1.30;;;;;25.70;95874.00;;;;5053894;28;20189;-57
2023/09/16 10:19:51;;;;;;;0.90;0.90;;;;;26.00;95871.00;;;;5053770;28;20188;-57
2023/09/16 10:22:18;;;;;;;1.33;1.23;;;;;26.40;95883.00;;;;5053709;28;20195;-58
2023/09/16 10:24:46;;;;;;;0.95;0.95;;;;;26.80;95871.00;;;;5053673;28;20693;-58
2023/09/16 10:27:19;;;;;;;0.98;0.98;;;;;26.70;95879.00;;;;5053892;28;20192;-58
2023/09/16 10:29:49;;;;;;;0.80;0.80;;;;;26.60;95878.00;;;;5053912;28;20196;-58
2023/09/16 10:32:17;;;;;;;0.90;0.90;;;;;26.80;95873.00;;;;5036625;28;20192;-58
2023/09/16 10:34:47;;;;;;;0.75;0.75;;;;;27.10;95877.00;;;;5053964;28;20818;-57
2023/09/16 10:37:17;;;;;;;0.77;0.77;;;;;27.10;95868.00;;;;5053523;28;20718;-57
2023/09/16 10:39:46;;;;;;;0.70;0.70;;;;;27.30;95867.00;;;;5053515;28;20188;-57
2023/09/16 10:42:16;;;;;;;0.90;0.90;;;;;27.50;95863.00;;;;5053475;28;20227;-57
2023/09/16 10:44:43;;;;;;;0.90;0.90;;;;;27.20;95878.00;;;;5035382;28;20274;-57
2023/09/16 10:47:13;;;;;;;0.40;0.40;;;;;27.20;95885.00;;;;5053753;28;20291;-57
2023/09/16 10:49:41;;;;;;;0.65;0.65;;;;;27.60;95873.00;;;;5053358;28;20211;-57
2023/09/16 10:52:12;;;;;;;0.52;0.52;;;;;27.90;95872.00;;;;5053501;28;20188;-57
2023/09/16 10:54:46;;;;;;;0.88;0.88;;;;;28.00;95863.00;;;;5053910;28;20216;-57
2023/09/16 10:57:17;;;;;;;0.60;0.60;;;;;27.70;95877.00;;;;5053578;28;20180;-57
2023/09/16 10:59:47;;;;;;;1.02;1.00;;;;;27.40;95875.00;;;;5053139;28;20184;-57
2023/09/16 11:02:26;;;;;;;0.90;0.90;;;;;27.30;95878.00;;;;5052917;28;20559;-57
2023/09/16 11:04:54;;;;;;;1.30;1.30;;;;;27.50;95876.00;;;;5053620;28;20222;-57
2023/09/16 11:07:22;;;;;;;0.60;0.60;;;;;27.70;95881.00;;;;5053015;28;20593;-57
2023/09/16 11:09:50;;;;;;;0.80;0.80;;;;;27.90;95879.00;;;;5052838;28;20581;-58
2023/09/16 11:12:20;;;;;;;0.70;0.70;;;;;28.10;95861.00;;;;5052929;28;20188;-59
2023/09/16 11:14:47;;;;;;;0.60;0.60;;;;;28.30;95864.00;;;;5053116;28;20558;-58
2023/09/16 11:17:17;;;;;;;0.70;0.70;;;;;28.20;95870.00;;;;5053397;28;20196;-59
2023/09/16 11:19:44;;;;;;;0.60;0.60;;;;;28.20;95864.00;;;;5052868;28;20192;-59
2023/09/16 11:22:12;;;;;;;0.70;0.70;;;;;27.90;95866.00;;;;5053289;28;20546;-59
2023/09/16 11:24:39;;;;;;;0.77;0.77;;;;;27.80;95870.00;;;;5053252;28;20671;-59
2023/09/16 11:27:07;;;;;;;0.80;0.80;;;;;28.20;95871.00;;;;5053089;28;20275;-59
2023/09/16 11:29:34;;;;;;;0.50;0.50;;;;;28.30;95866.00;;;;5034783;28;20705;-59
2023/09/16 11:32:02;;;;;;;0.52;0.52;;;;;28.80;95865.00;;;;5053001;28;20196;-59
2023/09/16 11:34:32;;;;;;;1.25;1.15;;;;;28.90;95857.00;;;;5053124;28;20223;-58
2023/09/16 11:37:01;;;;;;;0.57;0.57;;;;;29.50;95846.00;;;;5052981;28;20192;-58
2023/09/16 11:39:36;;;;;;;1.08;1.08;;;;;30.10;95853.00;;;;5034718;28;20192;-60
2023/09/16 11:42:03;;;;;;;1.23;1.13;;;;;29.80;95848.00;;;;5052782;28;20187;-59
2023/09/16 11:44:31;;;;;;;0.70;0.70;;;;;29.60;95862.00;;;;5055174;28;20261;-59
2023/09/16 11:47:01;;;;;;;0.90;0.90;;;;;30.10;95845.00;;;;5056900;28;20555;-59
2023/09/16 11:49:32;;;;;;;1.08;1.08;;;;;30.20;95841.00;;;;5057110;28;20566;-59
2023/09/16 11:51:59;;;;;;;1.00;1.00;;;;;30.40;95853.00;;;;5057337;28;20187;-59
2023/09/16 11:54:30;;;;;;;0.93;0.93;;;;;30.70;95844.00;;;;5056751;28;20216;-59
2023/09/16 11:56:58;;;;;;;1.13;1.05;;;;;30.40;95845.00;;;;5056886;28;20192;-59
2023/09/16 11:59:26;;;;;;;0.88;0.88;;;;;30.60;95836.00;;;;5056766;28;20192;-59
2023/09/16 12:01:55;;;;;;;0.60;0.60;;;;;30.00;95842.00;;;;5056322;28;20287;-59
2023/09/16 12:04:23;;;;;;;0.80;0.80;;;;;30.10;95844.00;;;;5056537;28;20238;-59
2023/09/16 12:06:54;;;;;;;0.63;0.63;;;;;30.20;95836.00;;;;5056365;28;20199;-59
2023/09/16 12:09:25;;;;;;;0.77;0.77;;;;;30.30;95830.00;;;;5057406;28;20208;-59
2023/09/16 12:11:53;;;;;;;1.00;1.00;;;;;30.40;95831.00;;;;5057120;28;20181;-59
2023/09/16 12:14:22;;;;;;;0.80;0.80;;;;;30.80;95818.00;;;;5056106;28;20215;-59
2023/09/16 12:16:53;;;;;;;0.70;0.70;;;;;31.40;95839.00;;;;5056360;28;20196;-59
2023/09/16 12:19:20;;;;;;;0.70;0.70;;;;;31.10;95837.00;;;;5056224;28;20592;-59
2023/09/16 12:21:49;;;;;;;0.82;0.80;;;;;31.40;95823.00;;;;5056142;28;20282;-59
2023/09/16 12:24:20;;;;;;;0.80;0.80;;;;;32.00;95822.00;;;;5056110;28;20223;-59